Time;durP1;ratioP1;P1;durP2;ratioP2;P2;SDS_P1;SDS_P2;PMS_P1;PMS_P2;Temp;Humidity;BMP_temperature;BMP_pressure;BME280_temperature;BME280_humidity;BME280_pressure;Samples;Min_cycle;Max_cycle;Signal;HPM_P1;HPM_P2
2021/08/29 00:00:38;;;;;;;;;6.75;4.75;;;;;16.35;64.15;101062.09;5033562;28;45671;-90
2021/08/29 00:03:04;;;;;;;;;5.00;4.00;;;;;16.25;64.30;101041.38;5016843;28;45287;-90
2021/08/29 00:05:29;;;;;;;;;5.50;4.00;;;;;16.45;64.01;101077.56;5033566;28;45467;-89
2021/08/29 00:07:54;;;;;;;;;5.00;5.00;;;;;16.32;64.21;101053.44;5016761;28;47282;-92
2021/08/29 00:10:20;;;;;;;;;4.00;4.00;;;;;16.18;64.17;101031.09;5016426;28;45698;-90
2021/08/29 00:12:46;;;;;;;;;3.75;3.75;;;;;16.32;64.59;101053.44;5017617;28;45332;-90
2021/08/29 00:15:11;;;;;;;;;6.00;4.75;;;;;16.00;64.53;101002.91;5016553;28;45438;-90
2021/08/29 00:17:36;;;;;;;;;12.00;5.50;;;;;16.13;64.80;101029.72;5016325;28;46559;-89
2021/08/29 00:20:03;;;;;;;;;6.50;4.00;;;;;16.24;64.59;101050.44;5016455;28;45310;-90
2021/08/29 00:22:28;;;;;;;;;6.25;5.25;;;;;16.19;64.51;101051.59;5016443;28;45285;-91
2021/08/29 00:24:54;;;;;;;;;6.50;4.50;;;;;15.96;64.68;101012.13;5033087;28;45338;-90
2021/08/29 00:27:19;;;;;;;;;5.50;5.00;;;;;15.95;65.07;101011.28;5016333;28;48165;-88
2021/08/29 00:29:44;;;;;;;;;4.25;4.25;;;;;15.86;64.95;100994.03;5032732;28;45771;-90
2021/08/29 00:32:10;;;;;;;;;6.00;4.75;;;;;16.12;64.79;101044.09;5016546;28;45222;-87
2021/08/29 00:34:35;;;;;;;;;5.25;3.00;;;;;16.24;65.25;101067.38;5016358;28;45252;-88
2021/08/29 00:37:00;;;;;;;;;5.25;5.25;;;;;16.09;65.17;101041.63;5016205;28;48407;-89
2021/08/29 00:39:26;;;;;;;;;9.75;4.25;;;;;15.93;64.91;101023.94;5032856;28;45587;-90
2021/08/29 00:41:51;;;;;;;;;5.50;4.00;;;;;15.79;65.22;101003.47;5031772;28;45095;-90
2021/08/29 00:44:18;;;;;;;;;5.50;4.50;;;;;15.76;65.70;101000.09;5032962;28;45239;-89
2021/08/29 00:46:46;;;;;;;;;3.75;3.75;;;;;15.68;65.86;100997.97;5016061;28;48118;-91
2021/08/29 00:49:14;;;;;;;;;5.00;4.25;;;;;16.10;65.64;101062.97;5016374;28;45613;-89
2021/08/29 00:51:39;;;;;;;;;7.25;4.75;;;;;15.86;65.90;101023.53;5016472;28;45272;-90
2021/08/29 00:54:05;;;;;;;;;5.75;5.25;;;;;15.77;65.79;101004.50;5015994;28;45407;-89
2021/08/29 00:56:30;;;;;;;;;10.25;5.75;;;;;16.09;66.01;101063.97;5032652;28;47045;-90
2021/08/29 00:58:56;;;;;;;;;7.50;6.50;;;;;16.07;65.74;101055.16;5032510;28;45069;-89
2021/08/29 01:01:35;;;;;;;;;4.00;4.00;;;;;16.07;65.79;101059.66;5015917;28;45216;-88
2021/08/29 01:04:06;;;;;;;;;7.75;4.75;;;;;15.94;65.96;101038.22;5016229;28;45353;-90
2021/08/29 01:06:37;;;;;;;;;9.00;6.75;;;;;15.90;66.00;101028.66;5032449;28;47107;-90
2021/08/29 01:09:07;;;;;;;;;4.00;4.00;;;;;15.63;65.72;100994.75;5016222;28;45729;-91
2021/08/29 01:11:37;;;;;;;;;8.25;5.50;;;;;15.59;66.44;100988.75;5016032;28;45152;-90
2021/08/29 01:14:13;;;;;;;;;11.00;5.25;;;;;15.85;66.20;101029.84;5015914;28;45363;-88
2021/08/29 01:16:39;;;;;;;;;8.50;5.50;;;;;15.76;66.40;101016.19;5015758;28;47406;-89
2021/08/29 01:19:14;;;;;;;;;8.00;5.25;;;;;15.88;66.20;101039.50;5015252;28;45445;-90
2021/08/29 01:21:41;;;;;;;;;6.00;4.00;;;;;15.96;66.36;101057.72;5015890;28;45248;-90
2021/08/29 01:24:14;;;;;;;;;4.00;4.00;;;;;15.72;66.14;101020.94;5016005;28;45300;-89
2021/08/29 01:27:00;;;;;;;;;4.25;4.25;;;;;15.78;66.57;101031.22;5015455;28;48286;-88
2021/08/29 01:29:28;;;;;;;;;5.25;4.00;;;;;15.87;66.69;101043.16;5015575;28;46828;-88
2021/08/29 01:31:55;;;;;;;;;7.75;5.25;;;;;15.98;66.74;101058.50;5015592;28;45202;-90
2021/08/29 01:34:20;;;;;;;;;4.25;3.25;;;;;16.00;66.80;101054.75;5015532;28;45389;-89
2021/08/29 01:36:50;;;;;;;;;5.50;4.25;;;;;15.87;66.41;101032.41;5015488;28;47348;-89
2021/08/29 01:39:16;;;;;;;;;9.50;5.75;;;;;15.97;66.57;101043.34;5015575;28;45518;-91
2021/08/29 01:41:44;;;;;;;;;5.25;4.50;;;;;15.68;66.86;100995.28;5015723;28;45321;-91
2021/08/29 01:44:10;;;;;;;;;6.50;4.75;;;;;15.83;66.92;101017.50;5015310;28;45365;-89
2021/08/29 01:46:38;;;;;;;;;5.00;4.00;;;;;15.99;66.49;101042.28;5015490;28;47275;-88
2021/08/29 01:49:06;;;;;;;;;6.50;5.00;;;;;16.01;66.95;101037.66;5015249;28;45169;-89
2021/08/29 01:51:32;;;;;;;;;8.75;5.00;;;;;15.92;66.96;101024.91;5032105;28;45283;-89
2021/08/29 01:53:57;;;;;;;;;5.00;5.00;;;;;15.80;66.52;100996.28;5017771;28;45182;-88
2021/08/29 01:56:22;;;;;;;;;5.00;4.75;;;;;16.09;66.48;101041.63;5037299;28;48169;-89
2021/08/29 01:58:48;;;;;;;;;8.75;6.00;;;;;15.97;66.59;101020.06;5023439;28;45819;-88
2021/08/29 02:01:13;;;;;;;;;9.25;4.00;;;;;16.08;66.35;101031.88;5019049;28;45234;-89
2021/08/29 02:03:41;;;;;;;;;5.75;5.75;;;;;15.90;66.53;101002.69;5018679;28;45327;-89
2021/08/29 02:06:30;;;;;;;;;4.50;4.25;;;;;16.28;66.68;101060.81;5034992;28;47611;-89
2021/08/29 02:09:06;;;;;;;;;3.00;3.00;;;;;16.01;66.80;101024.25;5018612;28;46464;-88
2021/08/29 02:11:36;;;;;;;;;4.50;4.50;;;;;16.28;66.67;101063.50;5035482;28;45110;-89
2021/08/29 02:14:04;;;;;;;;;6.25;3.00;;;;;16.19;66.38;101048.94;5018371;28;45293;-91
2021/08/29 02:16:36;;;;;;;;;6.00;4.00;;;;;16.30;66.49;101055.34;5018534;28;48593;-91
2021/08/29 02:19:02;;;;;;;;;6.50;5.00;;;;;16.27;66.38;101058.25;5018139;28;45336;-89
2021/08/29 02:21:29;;;;;;;;;5.00;4.25;;;;;16.28;66.37;101071.56;5035030;28;45356;-92
2021/08/29 02:23:56;;;;;;;;;6.00;6.00;;;;;16.24;66.62;101064.69;5018331;28;45303;-91
2021/08/29 02:26:23;;;;;;;;;4.50;4.00;;;;;16.01;66.40;101029.63;5018285;28;47389;-91
2021/08/29 02:28:49;;;;;;;;;10.25;5.75;;;;;16.13;66.53;101054.75;5018388;28;46114;-91
2021/08/29 02:31:20;;;;;;;;;7.75;4.75;;;;;15.77;66.40;101002.69;5018373;28;45271;-90
2021/08/29 02:33:47;;;;;;;;;9.00;6.25;;;;;16.19;66.86;101064.19;5018370;28;45409;-90
2021/08/29 02:36:15;;;;;;;;;5.75;5.25;;;;;15.95;66.64;101026.53;5018070;28;47320;-89
2021/08/29 02:38:42;;;;;;;;;8.50;7.00;;;;;16.09;66.86;101047.00;5018377;28;46029;-91
2021/08/29 02:41:08;;;;;;;;;8.75;4.50;;;;;15.91;66.91;101015.16;5018227;28;45208;-90
2021/08/29 02:43:35;;;;;;;;;7.00;4.50;;;;;16.09;67.02;101055.03;5018241;28;45354;-90
2021/08/29 02:46:02;;;;;;;;;10.25;5.00;;;;;15.74;66.86;100996.69;5017788;28;47449;-91
2021/08/29 02:48:29;;;;;;;;;5.00;5.00;;;;;15.69;67.10;100981.78;5018323;28;45510;-90
2021/08/29 02:50:56;;;;;;;;;6.25;5.00;;;;;15.74;66.82;100997.53;5018037;28;45352;-90
2021/08/29 02:53:22;;;;;;;;;8.25;5.75;;;;;16.16;67.12;101056.31;5018265;28;45331;-90
2021/08/29 02:55:52;;;;;;;;;6.50;5.50;;;;;16.02;66.95;101038.53;5017760;28;47017;-89
2021/08/29 02:58:18;;;;;;;;;9.25;5.00;;;;;15.91;67.13;101017.84;5015770;28;45883;-93
2021/08/29 03:00:44;;;;;;;;;5.75;5.00;;;;;15.90;67.03;101026.84;5017575;28;45243;-91
2021/08/29 03:03:10;;;;;;;;;4.75;4.25;;;;;16.12;67.05;101054.81;5017902;28;45212;-90
2021/08/29 03:05:35;;;;;;;;;5.75;4.50;;;;;16.08;66.59;101040.78;5016445;28;48338;-89
2021/08/29 03:08:01;;;;;;;;;5.75;4.75;;;;;16.09;66.84;101030.91;5017305;28;45283;-91
2021/08/29 03:10:26;;;;;;;;;8.00;5.00;;;;;15.87;66.55;100995.72;5017381;28;45184;-89
2021/08/29 03:12:53;;;;;;;;;6.75;4.50;;;;;16.20;66.99;101057.81;5017458;28;45334;-90
2021/08/29 03:15:18;;;;;;;;;6.00;3.50;;;;;16.05;66.75;101032.97;5018925;28;46396;-90
2021/08/29 03:17:44;;;;;;;;;7.50;4.50;;;;;16.05;66.73;101027.59;5017371;28;45312;-90
2021/08/29 03:20:10;;;;;;;;;6.00;5.00;;;;;15.78;66.99;100990.16;5017579;28;45291;-90
2021/08/29 03:22:37;;;;;;;;;6.50;4.75;;;;;15.94;67.00;101016.75;5017670;28;45206;-90
2021/08/29 03:25:05;;;;;;;;;7.50;4.25;;;;;16.01;66.89;101032.31;5017513;28;47454;-90
2021/08/29 03:27:30;;;;;;;;;6.75;4.00;;;;;15.92;66.98;101007.94;5017707;28;45851;-89
2021/08/29 03:29:55;;;;;;;;;3.75;3.75;;;;;16.08;66.72;101037.25;5017763;28;45270;-90
2021/08/29 03:32:21;;;;;;;;;8.50;2.75;;;;;16.02;66.57;101025.13;5017526;28;45216;-89
2021/08/29 03:34:49;;;;;;;;;8.00;5.25;;;;;15.94;66.59;101008.72;5016890;28;47322;-89
2021/08/29 03:37:15;;;;;;;;;7.25;3.00;;;;;15.82;66.66;100986.31;5017768;28;45260;-89
2021/08/29 03:39:41;;;;;;;;;6.50;5.00;;;;;15.75;66.62;100968.88;5017582;28;45258;-91
2021/08/29 03:42:07;;;;;;;;;6.25;4.25;;;;;15.89;66.69;100998.31;5017482;28;45318;-89
2021/08/29 03:44:32;;;;;;;;;5.50;4.25;;;;;15.85;66.76;101003.03;5017059;28;47614;-90
2021/08/29 03:46:58;;;;;;;;;5.00;4.00;;;;;15.66;66.79;100967.72;5017114;28;45235;-91
2021/08/29 03:49:25;;;;;;;;;3.50;3.50;;;;;15.71;66.72;100985.19;5017218;28;45274;-89
2021/08/29 03:51:51;;;;;;;;;7.25;4.00;;;;;15.70;66.95;100986.19;5016770;28;45350;-89
2021/08/29 03:54:17;;;;;;;;;7.75;4.25;;;;;15.56;66.92;100980.91;5016278;28;47346;-89
2021/08/29 03:56:46;;;;;;;;;4.50;3.25;;;;;15.56;66.94;100996.13;5016764;28;45885;-89
2021/08/29 03:59:11;;;;;;;;;9.00;5.25;;;;;15.50;67.11;100989.38;5016901;28;45252;-90
2021/08/29 04:01:37;;;;;;;;;6.50;5.25;;;;;15.39;67.58;100989.25;5017037;28;45230;-90
2021/08/29 04:04:02;;;;;;;;;4.50;3.75;;;;;15.55;67.88;101024.78;5016811;28;48335;-91
2021/08/29 04:06:32;;;;;;;;;9.50;4.75;;;;;15.55;67.56;101035.50;5016848;28;45198;-91
2021/08/29 04:09:06;;;;;;;;;5.00;5.00;;;;;15.46;67.75;101030.75;5017143;28;45265;-89
2021/08/29 04:11:33;;;;;;;;;6.00;3.25;;;;;15.20;67.62;100985.16;5017008;28;45219;-91
2021/08/29 04:13:59;;;;;;;;;8.25;4.25;;;;;15.47;67.88;101033.31;5016646;28;47579;-89
2021/08/29 04:16:25;;;;;;;;;5.50;4.50;;;;;15.46;68.17;101034.31;5016061;28;45228;-91
2021/08/29 04:18:52;;;;;;;;;7.00;4.00;;;;;15.30;68.29;101012.19;5016623;28;45208;-91
2021/08/29 04:21:25;;;;;;;;;7.00;4.75;;;;;15.33;68.12;101023.56;5016445;28;45244;-91
2021/08/29 04:23:51;;;;;;;;;5.50;4.00;;;;;15.17;68.32;100999.59;5016491;28;47515;-92
2021/08/29 04:26:16;;;;;;;;;5.50;4.00;;;;;15.09;68.20;100985.03;5016257;28;45790;-90
2021/08/29 04:28:42;;;;;;;;;5.50;5.25;;;;;14.91;68.38;100958.53;5016568;28;45279;-91
2021/08/29 04:31:11;;;;;;;;;5.75;5.75;;;;;14.88;68.18;100958.75;5016467;28;45327;-89
2021/08/29 04:33:37;;;;;;;;;7.50;5.75;;;;;14.96;68.55;100983.19;5016297;28;47165;-90
2021/08/29 04:36:10;;;;;;;;;5.00;4.25;;;;;14.92;68.61;100979.00;5016560;28;45658;-90
2021/08/29 04:38:37;;;;;;;;;7.25;6.25;;;;;15.16;68.82;101030.06;5016360;28;45229;-89
2021/08/29 04:41:03;;;;;;;;;5.50;4.25;;;;;15.05;68.50;101008.50;5016374;28;45462;-91
2021/08/29 04:43:28;;;;;;;;;6.00;5.50;;;;;15.10;68.56;101018.88;5016208;28;47459;-89
2021/08/29 04:45:54;;;;;;;;;8.50;4.75;;;;;15.06;68.60;101020.06;5016051;28;45321;-90
2021/08/29 04:48:19;;;;;;;;;8.00;6.00;;;;;14.72;68.77;100974.09;5016384;28;45228;-90
2021/08/29 04:50:45;;;;;;;;;5.50;4.25;;;;;15.05;68.85;101029.91;5016153;28;45204;-90
2021/08/29 04:53:10;;;;;;;;;7.50;5.25;;;;;14.84;68.96;101008.94;5015890;28;47067;-89
2021/08/29 04:55:35;;;;;;;;;7.50;5.00;;;;;14.76;69.11;100992.53;5016185;28;45184;-90
2021/08/29 04:58:01;;;;;;;;;7.25;5.00;;;;;14.60;69.15;100971.25;5016019;28;45192;-90
2021/08/29 05:00:26;;;;;;;;;7.50;6.25;;;;;14.97;69.33;101035.75;5016072;28;45052;-90
2021/08/29 05:02:52;;;;;;;;;9.00;5.75;;;;;14.72;69.51;101001.75;5015825;28;48094;-91
2021/08/29 05:05:17;;;;;;;;;8.25;6.25;;;;;14.57;69.24;100983.97;5016124;28;45109;-89
2021/08/29 05:07:45;;;;;;;;;6.75;5.00;;;;;14.72;69.34;101016.94;5016569;28;45253;-90
2021/08/29 05:10:11;;;;;;;;;7.25;5.50;;;;;14.74;69.33;101026.56;5016056;28;45254;-89
2021/08/29 05:12:36;;;;;;;;;5.50;5.50;;;;;14.52;69.24;100994.09;5015780;28;47907;-90
2021/08/29 05:15:04;;;;;;;;;7.00;4.50;;;;;14.47;69.57;100989.91;5015976;28;45733;-91
2021/08/29 05:17:30;;;;;;;;;6.25;5.25;;;;;14.58;69.90;101007.06;5016091;28;45330;-91
2021/08/29 05:19:55;;;;;;;;;6.50;6.50;;;;;14.36;69.77;100976.38;5016237;28;45783;-91
2021/08/29 05:22:21;;;;;;;;;7.50;5.25;;;;;14.74;69.79;101033.75;5015547;28;48284;-91
2021/08/29 05:24:46;;;;;;;;;11.25;6.00;;;;;14.59;69.79;101019.50;5015654;28;45264;-90
2021/08/29 05:27:11;;;;;;;;;7.00;6.00;;;;;14.63;70.04;101024.59;5015860;28;45212;-90
2021/08/29 05:29:37;;;;;;;;;6.50;3.75;;;;;14.57;69.73;101016.94;5019316;28;45157;-90
2021/08/29 05:32:02;;;;;;;;;5.50;5.25;;;;;14.68;69.86;101037.69;5019313;28;47170;-89
2021/08/29 05:34:28;;;;;;;;;7.50;6.25;;;;;14.73;70.37;101035.56;5019068;28;45322;-90
2021/08/29 05:36:53;;;;;;;;;5.50;5.50;;;;;14.71;70.26;101025.91;5019814;28;45631;-90
2021/08/29 05:39:19;;;;;;;;;10.50;6.00;;;;;14.81;69.89;101033.25;5019174;28;45413;-92
2021/08/29 05:41:44;;;;;;;;;7.00;6.00;;;;;14.75;70.17;101009.56;5019443;28;47083;-89
2021/08/29 05:44:09;;;;;;;;;10.50;7.75;;;;;14.80;69.89;101018.13;5019759;28;45402;-90
2021/08/29 05:46:35;;;;;;;;;11.00;8.50;;;;;14.93;69.67;101030.72;5019636;28;45363;-90
2021/08/29 05:49:00;;;;;;;;;7.75;4.75;;;;;14.86;69.83;101014.19;5018355;28;45354;-90
2021/08/29 05:51:30;;;;;;;;;9.00;6.00;;;;;14.83;69.38;101001.03;5019416;28;48150;-90
2021/08/29 05:53:56;;;;;;;;;9.25;5.50;;;;;15.04;69.59;101024.66;5019166;28;45485;-89
2021/08/29 05:56:21;;;;;;;;;7.00;6.00;;;;;14.96;69.29;101007.28;5018997;28;45259;-90
2021/08/29 05:58:47;;;;;;;;;7.50;6.00;;;;;15.13;69.24;101038.28;5019408;28;45363;-90
2021/08/29 06:01:15;;;;;;;;;7.25;6.00;;;;;15.26;69.30;101056.22;5018749;28;46934;-91
2021/08/29 06:03:40;;;;;;;;;6.25;5.25;;;;;15.04;69.92;101017.47;5018783;28;45712;-90
2021/08/29 06:06:06;;;;;;;;;6.50;6.25;;;;;14.91;69.35;100985.31;5020262;28;45262;-91
2021/08/29 06:08:31;;;;;;;;;7.25;7.25;;;;;15.02;69.71;101000.63;5018872;28;45189;-90
2021/08/29 06:10:57;;;;;;;;;7.50;6.50;;;;;15.43;69.43;101055.91;5019091;28;48184;-90
2021/08/29 06:13:23;;;;;;;;;9.25;5.25;;;;;15.33;69.52;101018.22;5018671;28;45544;-89
2021/08/29 06:15:48;;;;;;;;;6.75;5.25;;;;;15.29;69.22;100997.06;5018653;28;45300;-91
2021/08/29 06:18:14;;;;;;;;;7.00;5.00;;;;;15.70;69.17;101038.91;5018348;28;45376;-92
2021/08/29 06:20:41;;;;;;;;;9.50;6.00;;;;;15.64;68.66;100989.28;5018184;28;47664;-91
2021/08/29 06:23:09;;;;;;;;;7.00;4.50;;;;;15.97;68.22;101012.03;5018389;28;45459;-90
2021/08/29 06:25:35;;;;;;;;;8.75;5.00;;;;;16.04;67.99;100999.03;5019844;28;45432;-90
2021/08/29 06:28:00;;;;;;;;;5.00;5.00;;;;;16.33;67.44;101020.22;5018494;28;45464;-89
2021/08/29 06:30:27;;;;;;;;;7.00;5.50;;;;;16.56;67.11;101030.16;5018434;28;47194;-91
2021/08/29 06:32:52;;;;;;;;;6.00;5.00;;;;;16.58;66.66;101011.25;5001872;28;45296;-91
2021/08/29 06:35:18;;;;;;;;;6.50;5.25;;;;;16.58;66.26;101003.22;5018473;28;45324;-94
2021/08/29 06:37:46;;;;;;;;;7.50;5.00;;;;;16.81;66.25;101035.56;5018016;28;45348;-91
2021/08/29 06:40:12;;;;;;;;;4.50;4.50;;;;;16.92;66.04;101035.66;5017835;28;48468;-91
2021/08/29 06:42:37;;;;;;;;;8.00;6.00;;;;;17.01;65.66;101053.75;5017655;28;45523;-91
2021/08/29 06:45:04;;;;;;;;;6.50;4.25;;;;;16.68;65.67;100990.81;5019205;28;45190;-91
2021/08/29 06:47:32;;;;;;;;;8.50;7.00;;;;;16.75;65.35;100996.59;5018130;28;45225;-92
2021/08/29 06:49:57;;;;;;;;;6.00;4.50;;;;;16.87;65.75;101011.81;5018146;28;47791;-89
2021/08/29 06:52:23;;;;;;;;;6.75;4.75;;;;;16.91;65.19;101002.56;5017893;28;45629;-90
2021/08/29 06:54:48;;;;;;;;;6.25;4.25;;;;;17.16;64.87;101032.97;5017993;28;45493;-91
2021/08/29 06:57:13;;;;;;;;;9.00;6.00;;;;;17.08;64.39;101011.19;5017823;28;45302;-90
2021/08/29 06:59:40;;;;;;;;;6.50;5.00;;;;;17.19;64.59;101034.56;5017727;28;48216;-90
2021/08/29 07:02:05;;;;;;;;;5.00;5.00;;;;;17.31;64.71;101065.00;5017826;28;45207;-89
2021/08/29 07:04:31;;;;;;;;;6.25;4.75;;;;;17.21;64.27;101041.50;5018093;28;45210;-90
2021/08/29 07:06:56;;;;;;;;;6.25;5.50;;;;;17.36;64.68;101058.31;5017993;28;45440;-90
2021/08/29 07:09:22;;;;;;;;;6.50;5.50;;;;;17.13;64.88;101000.94;5017751;28;47830;-90
2021/08/29 07:11:47;;;;;;;;;7.50;5.75;;;;;17.38;64.42;101034.84;5001771;28;45653;-89
2021/08/29 07:14:12;;;;;;;;;10.25;5.00;;;;;17.55;64.21;101043.47;5016742;28;45264;-91
2021/08/29 07:16:41;;;;;;;;;6.25;6.25;;;;;17.42;63.74;101000.53;5017042;28;45212;-91
2021/08/29 07:19:07;;;;;;;;;6.50;5.25;;;;;17.79;63.27;101067.59;5017561;28;47917;-92
2021/08/29 07:21:34;;;;;;;;;6.75;6.75;;;;;17.43;63.81;101008.50;5017889;28;45266;-91
2021/08/29 07:23:59;;;;;;;;;5.50;5.50;;;;;17.53;63.55;101029.25;5017582;28;45338;-88
2021/08/29 07:26:27;;;;;;;;;6.75;5.00;;;;;17.49;63.22;101027.81;5017438;28;45279;-88
2021/08/29 07:28:53;;;;;;;;;6.75;6.00;;;;;17.41;63.57;101018.50;5017244;28;48059;-88
2021/08/29 07:31:18;;;;;;;;;6.50;4.75;;;;;17.66;63.87;101030.06;5017326;28;45196;-91
2021/08/29 07:33:46;;;;;;;;;6.25;5.00;;;;;17.74;63.46;101005.22;5017165;28;45520;-89
2021/08/29 07:36:12;;;;;;;;;4.75;4.75;;;;;18.28;62.57;101057.50;5001408;28;45189;-88
2021/08/29 07:38:37;;;;;;;;;5.50;5.50;;;;;18.29;62.35;101026.94;5016708;28;47008;-91
2021/08/29 07:41:03;;;;;;;;;4.00;4.00;;;;;18.29;61.96;101003.56;5016996;28;45322;-89
2021/08/29 07:43:29;;;;;;;;;5.25;4.00;;;;;18.63;61.39;101035.81;5017115;28;45365;-89
2021/08/29 07:45:54;;;;;;;;;8.25;5.00;;;;;18.54;60.83;101003.41;5016986;28;45363;-83
2021/08/29 07:48:19;;;;;;;;;6.25;4.75;;;;;18.87;60.98;101063.56;5015889;28;46960;-79
2021/08/29 07:50:45;;;;;;;;;5.75;4.00;;;;;18.86;60.48;101061.84;5015957;28;45213;-79
2021/08/29 07:53:10;;;;;;;;;3.25;2.00;;;;;18.85;61.10;101060.13;5017688;28;45156;-80
2021/08/29 07:55:35;;;;;;;;;7.00;4.25;;;;;18.83;60.69;101064.81;5017247;28;45232;-79
2021/08/29 07:58:01;;;;;;;;;4.00;4.00;;;;;18.80;60.97;101055.13;5016971;28;46523;-79
2021/08/29 08:00:27;;;;;;;;;5.00;4.00;;;;;18.84;61.11;101062.00;5016809;28;45143;-79
2021/08/29 08:02:52;;;;;;;;;6.75;6.00;;;;;18.83;60.78;101052.19;5017578;28;45060;-79
2021/08/29 08:05:18;;;;;;;;;4.00;3.00;;;;;18.85;60.72;101060.13;5017202;28;45293;-80
2021/08/29 08:07:43;;;;;;;;;10.50;4.00;;;;;18.87;60.89;101058.19;5017148;28;45122;-80
2021/08/29 08:10:09;;;;;;;;;6.25;4.00;;;;;18.86;60.95;101057.31;5017038;28;45347;-79
2021/08/29 08:12:34;;;;;;;;;5.75;5.50;;;;;18.86;60.42;101061.84;5016914;28;45188;-80
2021/08/29 08:15:00;;;;;;;;;4.50;4.50;;;;;18.84;60.96;101059.28;5017130;28;45321;-80
2021/08/29 08:17:25;;;;;;;;;5.00;3.00;;;;;18.85;60.65;101062.84;5016690;28;45958;-77
2021/08/29 08:19:50;;;;;;;;;7.25;5.00;;;;;18.84;60.01;101066.50;5016732;28;45299;-79
2021/08/29 08:22:16;;;;;;;;;5.00;4.00;;;;;18.85;60.53;101060.97;5017140;28;45261;-79
2021/08/29 08:24:41;;;;;;;;;4.00;2.50;;;;;18.86;60.29;101057.31;5016742;28;45207;-79
2021/08/29 08:27:07;;;;;;;;;5.25;3.00;;;;;18.90;60.23;101060.66;5016881;28;45299;-80
2021/08/29 08:29:32;;;;;;;;;3.00;3.00;;;;;18.88;60.70;101066.16;5016816;28;45556;-79
2021/08/29 08:31:57;;;;;;;;;5.00;2.50;;;;;18.82;60.30;101044.22;5016847;28;45193;-80
2021/08/29 08:34:22;;;;;;;;;5.75;3.75;;;;;18.80;60.16;101055.97;5016795;28;45313;-80
2021/08/29 08:36:48;;;;;;;;;5.50;4.00;;;;;18.75;60.21;101062.72;5016839;28;46277;-80
2021/08/29 08:39:13;;;;;;;;;3.25;3.25;;;;;18.69;60.43;101057.84;5015412;28;45249;-83
2021/08/29 08:41:39;;;;;;;;;4.25;3.75;;;;;18.65;60.72;101073.38;5017219;28;45213;-81
2021/08/29 08:44:05;;;;;;;;;3.00;3.00;;;;;18.62;61.08;101062.88;5016549;28;45274;-81
2021/08/29 08:46:31;;;;;;;;;4.75;3.75;;;;;18.58;61.69;101070.38;5016415;28;45952;-81
2021/08/29 08:48:56;;;;;;;;;3.50;3.50;;;;;18.54;61.25;101073.41;5016520;28;45535;-80
2021/08/29 08:51:28;;;;;;;;;4.00;3.00;;;;;18.50;60.51;101071.94;5016634;28;45215;-80
2021/08/29 08:53:55;;;;;;;;;4.00;3.25;;;;;18.43;60.96;101076.97;5016180;28;45286;-81
2021/08/29 08:56:21;;;;;;;;;3.25;2.00;;;;;18.34;60.90;101065.13;5016696;28;45136;-86
2021/08/29 08:58:47;;;;;;;;;3.50;3.00;;;;;18.42;60.81;101077.94;5016727;28;45496;-89
2021/08/29 09:01:13;;;;;;;;;2.00;2.00;;;;;18.45;60.97;101077.69;5016552;28;45160;-87
2021/08/29 09:03:39;;;;;;;;;8.75;2.00;;;;;18.48;60.48;101069.38;5014565;28;45418;-87
2021/08/29 09:06:06;;;;;;;;;2.25;1.75;;;;;18.59;60.50;101079.28;5016276;28;46139;-80
2021/08/29 09:08:33;;;;;;;;;3.00;3.00;;;;;18.62;60.61;101076.34;5016309;28;45679;-82
2021/08/29 09:10:58;;;;;;;;;3.00;2.00;;;;;18.65;60.78;101078.78;5016785;28;45220;-81
2021/08/29 09:13:24;;;;;;;;;5.00;3.75;;;;;18.69;59.90;101068.63;5016819;28;45247;-81
2021/08/29 09:15:49;;;;;;;;;4.25;2.00;;;;;18.78;59.95;101071.44;5016211;28;45993;-81
2021/08/29 09:18:14;;;;;;;;;3.00;3.00;;;;;18.80;59.48;101063.22;5016580;28;45232;-81
2021/08/29 09:20:40;;;;;;;;;5.00;3.00;;;;;18.86;59.17;101070.78;5016214;28;45269;-82
2021/08/29 09:23:11;;;;;;;;;4.00;3.00;;;;;18.89;59.70;101067.03;5016906;28;45108;-82
2021/08/29 09:25:41;;;;;;;;;1.75;1.75;;;;;19.06;59.56;101062.94;5014415;28;47357;-83
2021/08/29 09:28:15;;;;;;;;;4.00;2.00;;;;;19.30;59.09;101057.31;5016235;28;45555;-83
2021/08/29 09:30:42;;;;;;;;;3.00;2.00;;;;;19.56;58.57;101065.88;5016120;28;45239;-84
2021/08/29 09:33:08;;;;;;;;;3.75;2.75;;;;;19.75;58.34;101053.50;5016615;28;45236;-84
2021/08/29 09:35:35;;;;;;;;;2.00;2.00;;;;;19.93;57.95;101059.19;5015753;28;46323;-81
2021/08/29 09:38:04;;;;;;;;;1.00;1.00;;;;;20.04;57.30;101060.94;5016160;28;45246;-84
2021/08/29 09:40:32;;;;;;;;;3.50;2.00;;;;;20.11;57.53;101045.91;5016270;28;45298;-85
2021/08/29 09:42:59;;;;;;;;;3.75;2.25;;;;;20.29;56.96;101054.25;5016440;28;45246;-85
2021/08/29 09:45:27;;;;;;;;;3.75;2.00;;;;;20.42;55.90;101051.31;5015784;28;46393;-85
2021/08/29 09:47:56;;;;;;;;;1.00;1.00;;;;;20.46;55.11;101047.34;5015979;28;45208;-85
2021/08/29 09:50:23;;;;;;;;;5.00;2.50;;;;;20.58;55.76;101054.34;5015832;28;45239;-85
2021/08/29 09:53:08;;;;;;;;;3.00;2.00;;;;;20.65;54.93;101052.81;5016007;28;45124;-85
2021/08/29 09:55:38;;;;;;;;;2.00;2.00;;;;;20.68;54.44;101051.72;5015499;28;45272;-84
2021/08/29 09:58:32;;;;;;;;;4.75;4.50;;;;;20.68;54.50;101049.00;5014534;28;45238;-83
2021/08/29 10:01:26;;;;;;;;;3.25;3.25;;;;;20.63;55.35;101043.13;5016760;28;45108;-91
2021/08/29 10:03:51;;;;;;;;;2.25;2.25;;;;;20.77;54.71;101048.16;4975943;28;45209;-87
2021/08/29 10:06:25;;;;;;;;;4.75;4.00;;;;;20.89;54.63;101045.34;4974448;28;45293;-83
2021/08/29 10:09:01;;;;;;;;;4.00;3.00;;;;;21.07;54.63;101051.75;4974225;28;45305;-83
2021/08/29 10:11:29;;;;;;;;;4.25;3.25;;;;;21.27;53.62;101040.94;4974234;28;45234;-84
2021/08/29 10:13:56;;;;;;;;;3.00;2.00;;;;;21.49;53.50;101050.59;4975365;28;45209;-83
2021/08/29 10:16:23;;;;;;;;;4.00;2.25;;;;;21.67;53.03;101045.34;4977321;28;46110;-81
2021/08/29 10:18:50;;;;;;;;;7.25;2.25;;;;;21.77;53.18;101048.03;4977185;28;45519;-82
2021/08/29 10:21:18;;;;;;;;;2.00;2.00;;;;;21.88;52.71;101051.41;4977565;28;45273;-82
2021/08/29 10:23:47;;;;;;;;;3.75;2.00;;;;;21.94;52.38;101049.13;4977354;28;45185;-82
2021/08/29 10:26:15;;;;;;;;;2.25;2.25;;;;;21.93;52.13;101056.38;4977248;28;45215;-82
2021/08/29 10:28:51;;;;;;;;;5.00;3.00;;;;;21.93;51.99;101058.25;4976834;28;45256;-82
2021/08/29 10:31:18;;;;;;;;;2.00;2.00;;;;;21.88;51.51;101050.56;4977608;28;45241;-88
2021/08/29 10:33:49;;;;;;;;;5.00;3.00;;;;;21.84;51.98;101046.44;4977087;28;45164;-88
2021/08/29 10:36:18;;;;;;;;;3.00;3.00;;;;;21.83;51.82;101042.03;4977055;28;46733;-82
2021/08/29 10:38:45;;;;;;;;;3.00;3.00;;;;;21.78;52.46;101044.34;4977044;28;45400;-82
2021/08/29 10:41:11;;;;;;;;;4.25;3.00;;;;;21.81;52.39;101055.72;5013476;28;45288;-82
2021/08/29 10:43:39;;;;;;;;;2.50;2.00;;;;;21.86;52.27;101050.72;5018739;28;45263;-82
2021/08/29 10:46:08;;;;;;;;;2.00;2.00;;;;;21.91;51.90;101052.97;5018354;28;46282;-81
2021/08/29 10:48:40;;;;;;;;;4.00;3.25;;;;;21.96;51.24;101050.69;5018328;28;45218;-82
2021/08/29 10:51:10;;;;;;;;;4.00;4.00;;;;;22.01;50.89;101053.81;5018746;28;45211;-82
2021/08/29 10:53:40;;;;;;;;;3.00;3.00;;;;;21.99;51.29;101046.81;5018566;28;45333;-82
2021/08/29 10:56:14;;;;;;;;;3.75;3.00;;;;;21.98;51.01;101045.97;5018227;28;46638;-82
2021/08/29 10:59:09;;;;;;;;;3.00;3.00;;;;;22.08;51.61;101035.13;5018510;28;45206;-82
2021/08/29 11:01:52;;;;;;;;;6.00;3.00;;;;;22.21;51.23;101026.66;5018557;28;45267;-82
2021/08/29 11:04:17;;;;;;;;;5.75;4.25;;;;;22.34;50.63;101021.75;5018409;28;45286;-82
2021/08/29 11:06:54;;;;;;;;;4.00;4.00;;;;;22.49;50.15;101021.25;5016509;28;46993;-84
2021/08/29 11:09:32;;;;;;;;;3.00;3.00;;;;;22.59;50.00;101013.94;5017871;28;45155;-82
2021/08/29 11:11:59;;;;;;;;;3.25;3.25;;;;;22.67;50.31;101024.84;5018505;28;45285;-86
2021/08/29 11:14:41;;;;;;;;;2.75;2.25;;;;;22.74;49.53;101020.53;5018182;28;45279;-82
2021/08/29 11:17:20;;;;;;;;;3.00;3.00;;;;;22.89;49.77;101020.00;5018143;28;45339;-81
2021/08/29 11:19:47;;;;;;;;;4.00;3.00;;;;;23.05;49.67;101013.88;5016417;28;45353;-82
2021/08/29 11:22:16;;;;;;;;;2.75;2.75;;;;;23.14;48.84;101009.41;5018497;28;45197;-81
2021/08/29 11:25:01;;;;;;;;;4.00;3.00;;;;;23.27;48.52;101023.44;5017909;28;45274;-82